首页
METAR-TAF:

METAR-TAF

机场 :

巴倫西亞, 西班牙

纬度: 39-30N, 经度: 000-28W, 海拔: 69米

当前天气观测

该预报发布于15分钟前的16:30 UTC
风速14节,风向,在东北东转东南之间变化
温度 28°C
湿度 58%
气压 1018 hPa
能见度10公里或以上
1500米以下无云,无积雨云

METAR: LEVC 261630Z 08014KT 050V110 CAVOK 28/19 Q1018 NOSIG

时间: 18:45 (16:45 UTC)

预报

该预报发布于5小时和45分钟前的11:00 UTC
预报有效从26日的 12点(UTC)到 27日的 12点(UTC)
风速10节,风向
能见度10公里或以上
少量云层高于2500英尺
成为
从 26日的 22点(UTC)到 26日的 24点(UTC)
风速3节,风向多变
成为
从 27日的 08点(UTC)到 27日的 10点(UTC)
风速8节,风向

TAF: LEVC 261100Z 2612/2712 08010KT 9999 FEW025 TX29/2615Z TN19/2705Z BECMG 2622/2624 VRB03KT BECMG 2708/2710 09008KT

超过4000个机场的气象观测和天气预报(METAR&TAF报告)。

可查询的气象台以黄色和红色小点在地图上表示。

将鼠标移到小点上方,可查看气象台名称。

然后点击查看天气观测和预报。

如需切换地图:点击带黑十字的绿色按钮放大地图;点击带横线的绿色按钮缩小地图;或者点击绿色箭头查看邻近地区的地图。


METAR-TAF: